sensor_id;sensor_type;location;lat;lon;timestamp;pressure;altitude;pressure_sealevel;temperature;humidity
65131;BME280;51709;54.912;8.316;2023-04-12T00:03:04;100693.13;;;6.47;70.00
65131;BME280;51709;54.912;8.316;2023-04-12T00:08:27;100687.09;;;6.60;69.44
65131;BME280;51709;54.912;8.316;2023-04-12T00:13:53;100674.31;;;6.65;69.40
65131;BME280;51709;54.912;8.316;2023-04-12T00:19:14;100676.00;;;6.68;69.20
65131;BME280;51709;54.912;8.316;2023-04-12T00:24:38;100653.91;;;6.67;69.28
65131;BME280;51709;54.912;8.316;2023-04-12T00:29:59;100647.13;;;6.66;69.37
65131;BME280;51709;54.912;8.316;2023-04-12T00:35:20;100643.72;;;6.67;69.34
65131;BME280;51709;54.912;8.316;2023-04-12T00:40:41;100625.00;;;6.68;69.53
65131;BME280;51709;54.912;8.316;2023-04-12T00:46:02;100625.00;;;6.68;69.34
65131;BME280;51709;54.912;8.316;2023-04-12T00:51:23;100607.13;;;6.69;69.55
65131;BME280;51709;54.912;8.316;2023-04-12T00:56:44;100605.44;;;6.68;69.71
65131;BME280;51709;54.912;8.316;2023-04-12T01:02:07;100593.56;;;6.69;69.78
65131;BME280;51709;54.912;8.316;2023-04-12T01:20:02;100562.25;;;6.48;71.20
65131;BME280;51709;54.912;8.316;2023-04-12T01:31:09;100539.28;;;6.53;70.57
65131;BME280;51709;54.912;8.316;2023-04-12T01:36:30;100536.00;;;6.40;71.08
65131;BME280;51709;54.912;8.316;2023-04-12T01:41:54;100541.09;;;6.40;71.35
65131;BME280;51709;54.912;8.316;2023-04-12T01:47:16;100517.34;;;6.36;71.38
65131;BME280;51709;54.912;8.316;2023-04-12T01:52:41;100503.84;;;6.28;71.77
65131;BME280;51709;54.912;8.316;2023-04-12T01:58:05;100502.13;;;6.25;71.90
65131;BME280;51709;54.912;8.316;2023-04-12T02:03:28;100501.25;;;6.31;71.68
65131;BME280;51709;54.912;8.316;2023-04-12T02:09:02;100503.06;;;6.18;72.35
65131;BME280;51709;54.912;8.316;2023-04-12T02:14:25;100480.91;;;6.25;72.22
65131;BME280;51709;54.912;8.316;2023-04-12T02:19:46;100474.16;;;6.22;72.28
65131;BME280;51709;54.912;8.316;2023-04-12T02:25:08;100469.88;;;6.23;72.41
65131;BME280;51709;54.912;8.316;2023-04-12T02:30:28;100462.22;;;6.24;72.33
65131;BME280;51709;54.912;8.316;2023-04-12T02:35:50;100438.47;;;6.21;72.58
65131;BME280;51709;54.912;8.316;2023-04-12T02:41:20;100428.28;;;6.22;72.62
65131;BME280;51709;54.912;8.316;2023-04-12T02:46:41;100418.91;;;6.24;72.67
65131;BME280;51709;54.912;8.316;2023-04-12T02:52:02;100410.34;;;6.31;72.70
65131;BME280;51709;54.912;8.316;2023-04-12T02:57:31;100389.09;;;6.32;72.84
65131;BME280;51709;54.912;8.316;2023-04-12T03:02:53;100382.31;;;6.30;73.15
65131;BME280;51709;54.912;8.316;2023-04-12T03:08:18;100370.47;;;6.29;73.17
65131;BME280;51709;54.912;8.316;2023-04-12T03:13:45;100346.66;;;6.28;73.24
65131;BME280;51709;54.912;8.316;2023-04-12T03:19:06;100331.38;;;6.28;73.25
65131;BME280;51709;54.912;8.316;2023-04-12T03:24:28;100326.31;;;6.27;73.21
65131;BME280;51709;54.912;8.316;2023-04-12T03:29:49;100313.56;;;6.25;73.44
65131;BME280;51709;54.912;8.316;2023-04-12T03:35:15;100313.56;;;6.27;73.26
65131;BME280;51709;54.912;8.316;2023-04-12T03:40:36;100301.06;;;6.07;74.31
65131;BME280;51709;54.912;8.316;2023-04-12T03:45:57;100280.63;;;6.11;73.90
65131;BME280;51709;54.912;8.316;2023-04-12T03:51:18;100286.63;;;6.06;74.15
65131;BME280;51709;54.912;8.316;2023-04-12T03:56:41;100273.84;;;6.09;74.08
65131;BME280;51709;54.912;8.316;2023-04-12T04:02:12;100262.75;;;6.14;73.94
65131;BME280;51709;54.912;8.316;2023-04-12T04:07:39;100242.31;;;6.19;73.66
65131;BME280;51709;54.912;8.316;2023-04-12T04:13:00;100227.78;;;6.26;73.25
65131;BME280;51709;54.912;8.316;2023-04-12T04:18:21;100221.75;;;6.30;73.08
65131;BME280;51709;54.912;8.316;2023-04-12T04:23:42;100212.38;;;6.35;72.89
65131;BME280;51709;54.912;8.316;2023-04-12T04:29:08;100192.81;;;6.37;72.85
65131;BME280;51709;54.912;8.316;2023-04-12T04:34:31;100192.81;;;6.36;72.98
65131;BME280;51709;54.912;8.316;2023-04-12T04:40:01;100188.41;;;6.47;72.41
65131;BME280;51709;54.912;8.316;2023-04-12T04:45:31;100183.44;;;6.38;72.70
65131;BME280;51709;54.912;8.316;2023-04-12T04:50:53;100176.47;;;6.49;72.27
65131;BME280;51709;54.912;8.316;2023-04-12T04:56:15;100162.88;;;6.52;72.09
65131;BME280;51709;54.912;8.316;2023-04-12T05:01:37;100174.69;;;6.56;71.71
65131;BME280;51709;54.912;8.316;2023-04-12T05:07:01;100161.00;;;6.63;71.63
65131;BME280;51709;54.912;8.316;2023-04-12T05:12:22;100165.19;;;6.66;71.54
65131;BME280;51709;54.912;8.316;2023-04-12T05:17:46;100141.25;;;6.74;71.18
65131;BME280;51709;54.912;8.316;2023-04-12T05:23:07;100127.66;;;6.75;70.73
65131;BME280;51709;54.912;8.316;2023-04-12T05:28:27;100137.69;;;6.83;70.65
65131;BME280;51709;54.912;8.316;2023-04-12T05:33:48;100128.34;;;6.82;70.62
65131;BME280;51709;54.912;8.316;2023-04-12T05:39:10;100116.50;;;6.79;70.29
65131;BME280;51709;54.912;8.316;2023-04-12T05:44:34;100100.16;;;6.90;69.95
65131;BME280;51709;54.912;8.316;2023-04-12T05:49:55;100112.13;;;6.86;69.99
65131;BME280;51709;54.912;8.316;2023-04-12T05:55:16;100090.06;;;6.85;69.97
65131;BME280;51709;54.912;8.316;2023-04-12T06:00:40;100097.81;;;6.79;69.85
65131;BME280;51709;54.912;8.316;2023-04-12T06:06:04;100078.16;;;6.84;69.87
65131;BME280;51709;54.912;8.316;2023-04-12T06:11:26;100091.72;;;6.88;69.74
65131;BME280;51709;54.912;8.316;2023-04-12T06:16:47;100071.97;;;6.98;69.41
65131;BME280;51709;54.912;8.316;2023-04-12T06:29:10;100060.97;;;6.96;68.52
65131;BME280;51709;54.912;8.316;2023-04-12T06:34:31;100038.88;;;6.94;68.30
65131;BME280;51709;54.912;8.316;2023-04-12T06:39:58;100024.47;;;6.92;68.32
65131;BME280;51709;54.912;8.316;2023-04-12T06:45:18;100021.00;;;6.94;67.98
65131;BME280;51709;54.912;8.316;2023-04-12T06:50:39;100017.50;;;7.00;67.83
65131;BME280;51709;54.912;8.316;2023-04-12T06:56:03;100038.63;;;7.07;67.71
65131;BME280;51709;54.912;8.316;2023-04-12T07:01:25;100014.88;;;7.05;67.69
65131;BME280;51709;54.912;8.316;2023-04-12T07:06:45;100011.53;;;7.03;67.67
65131;BME280;51709;54.912;8.316;2023-04-12T07:12:06;99991.72;;;7.14;67.62
65131;BME280;51709;54.912;8.316;2023-04-12T07:17:26;99989.13;;;7.16;67.76
65131;BME280;51709;54.912;8.316;2023-04-12T07:22:47;99992.50;;;7.18;67.94
65131;BME280;51709;54.912;8.316;2023-04-12T07:28:07;99984.75;;;7.22;67.81
65131;BME280;51709;54.912;8.316;2023-04-12T07:33:28;99973.63;;;7.25;68.11
65131;BME280;51709;54.912;8.316;2023-04-12T07:38:49;99970.19;;;7.26;68.36
65131;BME280;51709;54.912;8.316;2023-04-12T07:44:15;99975.03;;;7.40;68.10
65131;BME280;51709;54.912;8.316;2023-04-12T07:49:35;99961.34;;;7.43;67.93
65131;BME280;51709;54.912;8.316;2023-04-12T07:54:56;99945.28;;;7.37;68.25
65131;BME280;51709;54.912;8.316;2023-04-12T08:00:17;99955.28;;;7.47;67.96
65131;BME280;51709;54.912;8.316;2023-04-12T08:05:39;99942.97;;;7.64;67.62
65131;BME280;51709;54.912;8.316;2023-04-12T08:10:59;99942.97;;;7.64;67.89
65131;BME280;51709;54.912;8.316;2023-04-12T08:16:22;99926.84;;;7.64;68.02
65131;BME280;51709;54.912;8.316;2023-04-12T08:21:43;99926.66;;;7.70;67.84
65131;BME280;51709;54.912;8.316;2023-04-12T08:27:04;99925.75;;;7.72;67.88
65131;BME280;51709;54.912;8.316;2023-04-12T08:32:24;99937.75;;;7.69;68.23
65131;BME280;51709;54.912;8.316;2023-04-12T08:37:45;99937.69;;;7.72;68.22
65131;BME280;51709;54.912;8.316;2023-04-12T08:43:06;99918.03;;;7.76;68.27
65131;BME280;51709;54.912;8.316;2023-04-12T08:48:32;99900.22;;;7.72;68.58
65131;BME280;51709;54.912;8.316;2023-04-12T08:53:53;99902.75;;;7.74;68.64
65131;BME280;51709;54.912;8.316;2023-04-12T08:59:13;99909.50;;;7.77;68.67
65131;BME280;51709;54.912;8.316;2023-04-12T09:04:46;99894.34;;;7.69;68.78
65131;BME280;51709;54.912;8.316;2023-04-12T09:10:08;99886.84;;;7.63;69.51
65131;BME280;51709;54.912;8.316;2023-04-12T09:15:29;99880.88;;;7.62;69.39
65131;BME280;51709;54.912;8.316;2023-04-12T09:21:05;99880.09;;;7.60;69.68
65131;BME280;51709;54.912;8.316;2023-04-12T09:26:26;99865.72;;;7.56;70.07
65131;BME280;51709;54.912;8.316;2023-04-12T09:32:02;99863.19;;;7.56;70.62
65131;BME280;51709;54.912;8.316;2023-04-12T09:37:23;99855.41;;;7.61;70.45
65131;BME280;51709;54.912;8.316;2023-04-12T09:42:51;99850.53;;;7.51;71.14
65131;BME280;51709;54.912;8.316;2023-04-12T09:48:18;99848.06;;;7.47;71.49
65131;BME280;51709;54.912;8.316;2023-04-12T09:53:43;99835.22;;;7.50;71.26
65131;BME280;51709;54.912;8.316;2023-04-12T09:59:06;99830.13;;;7.50;71.53
65131;BME280;51709;54.912;8.316;2023-04-12T10:04:27;99829.31;;;7.48;71.84
65131;BME280;51709;54.912;8.316;2023-04-12T10:09:50;99831.00;;;7.49;72.21
65131;BME280;51709;54.912;8.316;2023-04-12T10:15:13;99820.53;;;7.60;71.56
65131;BME280;51709;54.912;8.316;2023-04-12T10:20:39;99818.13;;;7.53;72.21
65131;BME280;51709;54.912;8.316;2023-04-12T10:26:03;99823.09;;;7.60;71.76
65131;BME280;51709;54.912;8.316;2023-04-12T10:31:30;99823.38;;;7.47;72.61
65131;BME280;51709;54.912;8.316;2023-04-12T10:36:54;99825.25;;;7.40;72.82
65131;BME280;51709;54.912;8.316;2023-04-12T10:42:25;99818.63;;;7.33;73.30
65131;BME280;51709;54.912;8.316;2023-04-12T11:09:38;99802.69;;;7.23;74.16
65131;BME280;51709;54.912;8.316;2023-04-12T11:15:11;99814.53;;;7.26;74.27
65131;BME280;51709;54.912;8.316;2023-04-12T11:20:41;99818.63;;;7.33;74.25
65131;BME280;51709;54.912;8.316;2023-04-12T11:26:02;99819.44;;;7.34;74.87
65131;BME280;51709;54.912;8.316;2023-04-12T11:31:22;99805.06;;;7.30;75.29
65131;BME280;51709;54.912;8.316;2023-04-12T11:36:52;99805.06;;;7.31;75.67
65131;BME280;51709;54.912;8.316;2023-04-12T11:42:18;99804.19;;;7.31;76.13
65131;BME280;51709;54.912;8.316;2023-04-12T11:47:42;99791.81;;;7.50;75.63
65131;BME280;51709;54.912;8.316;2023-04-12T11:53:10;99788.25;;;7.57;75.36
65131;BME280;51709;54.912;8.316;2023-04-12T11:58:31;99781.47;;;7.56;76.10
65131;BME280;51709;54.912;8.316;2023-04-12T12:03:52;99798.41;;;7.59;75.95
65131;BME280;51709;54.912;8.316;2023-04-12T12:09:13;99776.19;;;7.62;75.89
65131;BME280;51709;54.912;8.316;2023-04-12T12:14:34;99778.75;;;7.62;75.90
65131;BME280;51709;54.912;8.316;2023-04-12T12:19:56;99784.47;;;7.70;75.59
65131;BME280;51709;54.912;8.316;2023-04-12T12:25:18;99774.50;;;7.63;75.87
65131;BME280;51709;54.912;8.316;2023-04-12T12:30:39;99773.72;;;7.59;76.14
65131;BME280;51709;54.912;8.316;2023-04-12T12:36:00;99773.69;;;7.61;75.94
65131;BME280;51709;54.912;8.316;2023-04-12T12:41:22;99762.44;;;7.68;75.75
65131;BME280;51709;54.912;8.316;2023-04-12T12:46:43;99763.84;;;7.78;75.39
65131;BME280;51709;54.912;8.316;2023-04-12T12:52:16;99752.69;;;7.82;75.76
65131;BME280;51709;54.912;8.316;2023-04-12T12:57:37;99739.13;;;7.80;76.10
65131;BME280;51709;54.912;8.316;2023-04-12T13:02:57;99743.63;;;7.70;76.73
65131;BME280;51709;54.912;8.316;2023-04-12T13:08:19;99729.97;;;7.73;76.86
65131;BME280;51709;54.912;8.316;2023-04-12T13:13:40;99747.56;;;7.82;76.62
65131;BME280;51709;54.912;8.316;2023-04-12T13:19:00;99745.06;;;7.81;76.65
65131;BME280;51709;54.912;8.316;2023-04-12T13:24:21;99745.81;;;7.84;76.69
65131;BME280;51709;54.912;8.316;2023-04-12T13:29:41;99737.34;;;7.82;76.72
65131;BME280;51709;54.912;8.316;2023-04-12T13:35:03;99719.22;;;7.92;76.76
65131;BME280;51709;54.912;8.316;2023-04-12T13:40:23;99731.03;;;7.96;76.99
65131;BME280;51709;54.912;8.316;2023-04-12T13:45:44;99731.72;;;8.01;76.90
65131;BME280;51709;54.912;8.316;2023-04-12T13:51:05;99719.13;;;8.25;76.45
65131;BME280;51709;54.912;8.316;2023-04-12T13:56:25;99722.63;;;8.52;75.88
65131;BME280;51709;54.912;8.316;2023-04-12T14:01:49;99721.59;;;8.58;75.74
65131;BME280;51709;54.912;8.316;2023-04-12T14:07:10;99730.44;;;8.46;76.09
65131;BME280;51709;54.912;8.316;2023-04-12T14:12:31;99720.06;;;8.22;76.83
65131;BME280;51709;54.912;8.316;2023-04-12T14:17:51;99733.78;;;8.20;77.08
65131;BME280;51709;54.912;8.316;2023-04-12T14:23:12;99708.44;;;8.12;77.07
65131;BME280;51709;54.912;8.316;2023-04-12T14:28:33;99709.38;;;8.09;76.95
65131;BME280;51709;54.912;8.316;2023-04-12T14:33:54;99704.03;;;8.17;76.75
65131;BME280;51709;54.912;8.316;2023-04-12T14:39:15;99697.00;;;8.24;76.15
65131;BME280;51709;54.912;8.316;2023-04-12T14:44:36;99701.03;;;8.02;77.08
65131;BME280;51709;54.912;8.316;2023-04-12T14:49:56;99701.19;;;7.98;77.18
65131;BME280;51709;54.912;8.316;2023-04-12T14:55:17;99703.47;;;8.07;77.09
65131;BME280;51709;54.912;8.316;2023-04-12T15:00:39;99699.56;;;8.24;76.80
65131;BME280;51709;54.912;8.316;2023-04-12T15:05:59;99694.22;;;8.31;76.56
65131;BME280;51709;54.912;8.316;2023-04-12T15:11:20;99694.50;;;8.22;77.20
65131;BME280;51709;54.912;8.316;2023-04-12T15:16:41;99683.41;;;8.23;77.23
65131;BME280;51709;54.912;8.316;2023-04-12T15:22:01;99688.69;;;8.17;77.64
65131;BME280;51709;54.912;8.316;2023-04-12T15:27:22;99681.34;;;8.35;77.20
65131;BME280;51709;54.912;8.316;2023-04-12T15:32:42;99689.31;;;8.54;76.49
65131;BME280;51709;54.912;8.316;2023-04-12T15:38:03;99685.53;;;8.66;76.32
65131;BME280;51709;54.912;8.316;2023-04-12T15:43:24;99687.41;;;8.60;76.49
65131;BME280;51709;54.912;8.316;2023-04-12T15:48:45;99684.94;;;8.57;76.65
65131;BME280;51709;54.912;8.316;2023-04-12T15:54:05;99678.78;;;8.63;76.26
65131;BME280;51709;54.912;8.316;2023-04-12T15:59:26;99675.19;;;8.69;75.96
65131;BME280;51709;54.912;8.316;2023-04-12T16:04:49;99674.22;;;8.73;75.86
65131;BME280;51709;54.912;8.316;2023-04-12T16:10:10;99676.41;;;8.84;75.32
65131;BME280;51709;54.912;8.316;2023-04-12T16:15:31;99680.72;;;8.83;75.56
65131;BME280;51709;54.912;8.316;2023-04-12T16:20:52;99682.47;;;8.81;75.55
65131;BME280;51709;54.912;8.316;2023-04-12T16:26:15;99676.31;;;8.87;75.20
65131;BME280;51709;54.912;8.316;2023-04-12T16:31:40;99680.56;;;8.88;75.08
65131;BME280;51709;54.912;8.316;2023-04-12T16:37:01;99673.84;;;8.85;75.09
65131;BME280;51709;54.912;8.316;2023-04-12T16:42:22;99674.91;;;8.78;75.71
65131;BME280;51709;54.912;8.316;2023-04-12T16:47:44;99678.16;;;8.83;75.35
65131;BME280;51709;54.912;8.316;2023-04-12T16:53:04;99677.66;;;8.72;75.81
65131;BME280;51709;54.912;8.316;2023-04-12T16:58:27;99685.69;;;8.61;76.35
65131;BME280;51709;54.912;8.316;2023-04-12T17:03:48;99681.28;;;8.64;76.32
65131;BME280;51709;54.912;8.316;2023-04-12T17:09:09;99687.84;;;8.73;76.14
65131;BME280;51709;54.912;8.316;2023-04-12T17:14:29;99688.34;;;8.85;75.55
65131;BME280;51709;54.912;8.316;2023-04-12T17:19:51;99688.38;;;8.83;75.48
65131;BME280;51709;54.912;8.316;2023-04-12T17:25:11;99682.34;;;8.86;75.44
65131;BME280;51709;54.912;8.316;2023-04-12T17:30:32;99672.06;;;8.87;75.42
65131;BME280;51709;54.912;8.316;2023-04-12T17:35:53;99663.28;;;8.94;75.11
65131;BME280;51709;54.912;8.316;2023-04-12T17:41:14;99661.31;;;9.03;74.71
65131;BME280;51709;54.912;8.316;2023-04-12T17:46:34;99660.25;;;9.08;74.60
65131;BME280;51709;54.912;8.316;2023-04-12T17:51:55;99664.91;;;8.97;74.90
65131;BME280;51709;54.912;8.316;2023-04-12T17:57:17;99651.16;;;9.00;74.95
65131;BME280;51709;54.912;8.316;2023-04-12T18:02:37;99660.56;;;8.99;74.85
65131;BME280;51709;54.912;8.316;2023-04-12T18:07:58;99659.84;;;8.96;74.82
65131;BME280;51709;54.912;8.316;2023-04-12T18:13:19;99659.00;;;8.95;74.90
65131;BME280;51709;54.912;8.316;2023-04-12T18:18:40;99647.16;;;8.92;74.94
65131;BME280;51709;54.912;8.316;2023-04-12T18:24:00;99653.06;;;8.94;74.67
65131;BME280;51709;54.912;8.316;2023-04-12T18:29:21;99652.88;;;8.74;75.89
65131;BME280;51709;54.912;8.316;2023-04-12T18:34:42;99662.66;;;8.88;75.25
65131;BME280;51709;54.912;8.316;2023-04-12T18:40:03;99661.13;;;8.55;76.71
65131;BME280;51709;54.912;8.316;2023-04-12T18:45:26;99672.06;;;8.87;75.27
65131;BME280;51709;54.912;8.316;2023-04-12T18:50:47;99678.06;;;8.86;75.10
65131;BME280;51709;54.912;8.316;2023-04-12T18:56:09;99678.97;;;8.84;75.12
65131;BME280;51709;54.912;8.316;2023-04-12T19:01:31;99691.94;;;8.79;75.14
65131;BME280;51709;54.912;8.316;2023-04-12T19:06:51;99708.38;;;8.72;75.29
65131;BME280;51709;54.912;8.316;2023-04-12T19:12:12;99716.28;;;8.64;75.34
65131;BME280;51709;54.912;8.316;2023-04-12T19:17:33;99718.13;;;8.59;75.29
65131;BME280;51709;54.912;8.316;2023-04-12T19:22:58;99720.81;;;8.54;75.40
65131;BME280;51709;54.912;8.316;2023-04-12T19:28:18;99722.66;;;8.51;75.48
65131;BME280;51709;54.912;8.316;2023-04-12T19:33:39;99719.41;;;8.44;75.54
65131;BME280;51709;54.912;8.316;2023-04-12T19:39:00;99722.91;;;8.41;75.63
65131;BME280;51709;54.912;8.316;2023-04-12T19:44:20;99714.41;;;8.41;75.57
65131;BME280;51709;54.912;8.316;2023-04-12T19:49:42;99714.28;;;8.44;75.41
65131;BME280;51709;54.912;8.316;2023-04-12T19:55:03;99721.28;;;8.39;75.62
65131;BME280;51709;54.912;8.316;2023-04-12T20:00:23;99716.19;;;8.37;75.57
65131;BME280;51709;54.912;8.316;2023-04-12T20:05:44;99715.38;;;8.37;75.34
65131;BME280;51709;54.912;8.316;2023-04-12T20:11:05;99705.28;;;8.32;75.65
65131;BME280;51709;54.912;8.316;2023-04-12T20:16:26;99693.19;;;8.37;75.39
65131;BME280;51709;54.912;8.316;2023-04-12T20:21:46;99683.94;;;8.05;77.23
65131;BME280;51709;54.912;8.316;2023-04-12T20:27:07;99674.63;;;8.02;77.64
65131;BME280;51709;54.912;8.316;2023-04-12T20:32:28;99668.69;;;8.01;77.76
65131;BME280;51709;54.912;8.316;2023-04-12T20:37:49;99683.91;;;8.06;77.58
65131;BME280;51709;54.912;8.316;2023-04-12T20:43:10;99678.66;;;8.11;77.40
65131;BME280;51709;54.912;8.316;2023-04-12T20:48:31;99674.47;;;8.08;77.71
65131;BME280;51709;54.912;8.316;2023-04-12T20:53:52;99670.66;;;8.22;77.01
65131;BME280;51709;54.912;8.316;2023-04-12T20:59:12;99651.03;;;8.22;76.98
65131;BME280;51709;54.912;8.316;2023-04-12T21:04:36;99652.28;;;8.10;77.70
65131;BME280;51709;54.912;8.316;2023-04-12T21:09:59;99651.00;;;8.24;77.20
65131;BME280;51709;54.912;8.316;2023-04-12T21:15:21;99654.66;;;8.43;76.08
65131;BME280;51709;54.912;8.316;2023-04-12T21:20:41;99643.47;;;8.47;75.69
65131;BME280;51709;54.912;8.316;2023-04-12T21:26:02;99636.59;;;8.50;75.71
65131;BME280;51709;54.912;8.316;2023-04-12T21:31:23;99654.69;;;8.42;75.62
65131;BME280;51709;54.912;8.316;2023-04-12T21:36:44;99655.72;;;8.36;75.69
65131;BME280;51709;54.912;8.316;2023-04-12T21:42:04;99652.56;;;8.28;75.87
65131;BME280;51709;54.912;8.316;2023-04-12T21:47:25;99654.56;;;8.18;75.98
65131;BME280;51709;54.912;8.316;2023-04-12T21:52:46;99654.63;;;8.16;76.02
65131;BME280;51709;54.912;8.316;2023-04-12T21:58:07;99646.97;;;8.16;76.01
65131;BME280;51709;54.912;8.316;2023-04-12T22:03:28;99639.94;;;8.23;75.74
65131;BME280;51709;54.912;8.316;2023-04-12T22:08:48;99646.66;;;8.26;75.58
65131;BME280;51709;54.912;8.316;2023-04-12T22:14:09;99650.09;;;8.25;75.68
65131;BME280;51709;54.912;8.316;2023-04-12T22:19:30;99651.03;;;8.22;75.68
65131;BME280;51709;54.912;8.316;2023-04-12T22:24:51;99662.22;;;8.20;75.57
65131;BME280;51709;54.912;8.316;2023-04-12T22:30:13;99659.88;;;8.12;75.83
65131;BME280;51709;54.912;8.316;2023-04-12T22:35:34;99648.06;;;8.08;75.95
65131;BME280;51709;54.912;8.316;2023-04-12T22:40:55;99648.13;;;8.06;75.90
65131;BME280;51709;54.912;8.316;2023-04-12T22:46:21;99646.66;;;7.99;76.04
65131;BME280;51709;54.912;8.316;2023-04-12T22:51:43;99640.81;;;7.94;76.17
65131;BME280;51709;54.912;8.316;2023-04-12T22:57:03;99643.44;;;7.92;76.13
65131;BME280;51709;54.912;8.316;2023-04-12T23:02:24;99636.72;;;7.88;76.18
65131;BME280;51709;54.912;8.316;2023-04-12T23:07:44;99614.91;;;7.78;76.29
65131;BME280;51709;54.912;8.316;2023-04-12T23:13:05;99603.16;;;7.70;76.37
65131;BME280;51709;54.912;8.316;2023-04-12T23:18:26;99608.41;;;7.66;76.45
65131;BME280;51709;54.912;8.316;2023-04-12T23:23:47;99610.22;;;7.62;76.57
65131;BME280;51709;54.912;8.316;2023-04-12T23:29:08;99604.28;;;7.62;76.56
65131;BME280;51709;54.912;8.316;2023-04-12T23:34:28;99607.47;;;7.38;77.80
65131;BME280;51709;54.912;8.316;2023-04-12T23:39:50;99614.81;;;7.19;77.86
65131;BME280;51709;54.912;8.316;2023-04-12T23:45:12;99610.78;;;7.42;76.94
65131;BME280;51709;54.912;8.316;2023-04-12T23:50:32;99603.03;;;7.14;77.85
65131;BME280;51709;54.912;8.316;2023-04-12T23:55:53;99591.16;;;7.13;78.13
